sensor_id;sensor_type;location;lat;lon;timestamp;P1;durP1;ratioP1;P2;durP2;ratioP2
80195;SDS011;69516;42.050;21.516;2024-03-02T00:02:24;15.90;;;9.85;;
80195;SDS011;69516;42.050;21.516;2024-03-02T00:04:51;13.45;;;9.27;;
80195;SDS011;69516;42.050;21.516;2024-03-02T00:07:17;14.13;;;9.25;;
80195;SDS011;69516;42.050;21.516;2024-03-02T00:09:43;16.10;;;10.65;;
80195;SDS011;69516;42.050;21.516;2024-03-02T00:12:11;20.13;;;12.23;;
80195;SDS011;69516;42.050;21.516;2024-03-02T00:14:40;18.92;;;11.68;;
80195;SDS011;69516;42.050;21.516;2024-03-02T00:17:08;18.70;;;11.48;;
80195;SDS011;69516;42.050;21.516;2024-03-02T00:19:40;18.35;;;11.68;;
80195;SDS011;69516;42.050;21.516;2024-03-02T00:22:06;17.20;;;11.23;;
80195;SDS011;69516;42.050;21.516;2024-03-02T00:24:34;20.15;;;12.57;;
80195;SDS011;69516;42.050;21.516;2024-03-02T00:27:01;26.58;;;17.40;;
80195;SDS011;69516;42.050;21.516;2024-03-02T00:29:29;42.63;;;23.08;;
80195;SDS011;69516;42.050;21.516;2024-03-02T00:31:55;55.25;;;26.08;;
80195;SDS011;69516;42.050;21.516;2024-03-02T00:34:22;171.55;;;36.58;;
80195;SDS011;69516;42.050;21.516;2024-03-02T00:36:48;103.55;;;32.95;;
80195;SDS011;69516;42.050;21.516;2024-03-02T00:39:17;97.45;;;30.52;;
80195;SDS011;69516;42.050;21.516;2024-03-02T00:41:44;49.65;;;25.40;;
80195;SDS011;69516;42.050;21.516;2024-03-02T00:44:13;40.03;;;24.20;;
80195;SDS011;69516;42.050;21.516;2024-03-02T00:46:41;61.42;;;28.10;;
80195;SDS011;69516;42.050;21.516;2024-03-02T00:49:18;37.53;;;22.65;;
80195;SDS011;69516;42.050;21.516;2024-03-02T00:51:46;34.67;;;21.98;;
80195;SDS011;69516;42.050;21.516;2024-03-02T00:54:19;47.42;;;25.20;;
80195;SDS011;69516;42.050;21.516;2024-03-02T00:56:45;53.22;;;24.73;;
80195;SDS011;69516;42.050;21.516;2024-03-02T00:59:12;58.00;;;27.70;;
80195;SDS011;69516;42.050;21.516;2024-03-02T01:01:39;56.00;;;26.70;;
80195;SDS011;69516;42.050;21.516;2024-03-02T01:04:05;45.20;;;26.17;;
80195;SDS011;69516;42.050;21.516;2024-03-02T01:06:31;54.72;;;26.90;;
80195;SDS011;69516;42.050;21.516;2024-03-02T01:08:57;47.30;;;26.85;;
80195;SDS011;69516;42.050;21.516;2024-03-02T01:11:23;48.30;;;28.08;;
80195;SDS011;69516;42.050;21.516;2024-03-02T01:13:50;41.47;;;25.08;;
80195;SDS011;69516;42.050;21.516;2024-03-02T01:16:17;47.78;;;27.55;;
80195;SDS011;69516;42.050;21.516;2024-03-02T01:18:43;39.58;;;25.10;;
80195;SDS011;69516;42.050;21.516;2024-03-02T01:21:09;43.05;;;25.52;;
80195;SDS011;69516;42.050;21.516;2024-03-02T01:23:35;46.15;;;26.50;;
80195;SDS011;69516;42.050;21.516;2024-03-02T01:26:01;40.58;;;25.13;;
80195;SDS011;69516;42.050;21.516;2024-03-02T01:28:27;36.88;;;22.25;;
80195;SDS011;69516;42.050;21.516;2024-03-02T01:30:54;40.55;;;22.85;;
80195;SDS011;69516;42.050;21.516;2024-03-02T01:33:20;39.17;;;23.15;;
80195;SDS011;69516;42.050;21.516;2024-03-02T01:35:46;36.42;;;21.30;;
80195;SDS011;69516;42.050;21.516;2024-03-02T01:38:12;31.02;;;18.65;;
80195;SDS011;69516;42.050;21.516;2024-03-02T01:40:38;33.15;;;19.20;;
80195;SDS011;69516;42.050;21.516;2024-03-02T01:43:05;29.15;;;17.02;;
80195;SDS011;69516;42.050;21.516;2024-03-02T01:45:31;29.25;;;16.17;;
80195;SDS011;69516;42.050;21.516;2024-03-02T01:47:58;24.58;;;16.30;;
80195;SDS011;69516;42.050;21.516;2024-03-02T01:50:28;26.48;;;15.82;;
80195;SDS011;69516;42.050;21.516;2024-03-02T01:52:58;22.25;;;13.68;;
80195;SDS011;69516;42.050;21.516;2024-03-02T01:55:24;20.27;;;12.27;;
80195;SDS011;69516;42.050;21.516;2024-03-02T01:57:50;15.90;;;10.18;;
80195;SDS011;69516;42.050;21.516;2024-03-02T02:00:20;14.27;;;9.38;;
80195;SDS011;69516;42.050;21.516;2024-03-02T02:02:47;14.20;;;8.50;;
80195;SDS011;69516;42.050;21.516;2024-03-02T02:05:14;14.68;;;8.80;;
80195;SDS011;69516;42.050;21.516;2024-03-02T02:07:40;14.15;;;8.63;;
80195;SDS011;69516;42.050;21.516;2024-03-02T02:10:07;12.40;;;8.07;;
80195;SDS011;69516;42.050;21.516;2024-03-02T02:12:33;12.25;;;7.45;;
80195;SDS011;69516;42.050;21.516;2024-03-02T02:15:01;12.73;;;7.47;;
80195;SDS011;69516;42.050;21.516;2024-03-02T02:17:27;12.57;;;7.78;;
80195;SDS011;69516;42.050;21.516;2024-03-02T02:19:53;11.80;;;7.60;;
80195;SDS011;69516;42.050;21.516;2024-03-02T02:22:20;10.98;;;6.70;;
80195;SDS011;69516;42.050;21.516;2024-03-02T02:24:46;11.55;;;6.35;;
80195;SDS011;69516;42.050;21.516;2024-03-02T02:27:12;13.07;;;6.65;;
80195;SDS011;69516;42.050;21.516;2024-03-02T02:29:40;11.60;;;6.30;;
80195;SDS011;69516;42.050;21.516;2024-03-02T02:32:07;11.00;;;7.35;;
80195;SDS011;69516;42.050;21.516;2024-03-02T02:34:33;10.27;;;6.80;;
80195;SDS011;69516;42.050;21.516;2024-03-02T02:36:59;10.52;;;6.35;;
80195;SDS011;69516;42.050;21.516;2024-03-02T02:39:26;10.18;;;6.72;;
80195;SDS011;69516;42.050;21.516;2024-03-02T02:41:52;11.20;;;6.45;;
80195;SDS011;69516;42.050;21.516;2024-03-02T02:44:18;10.68;;;6.28;;
80195;SDS011;69516;42.050;21.516;2024-03-02T02:46:44;11.73;;;6.43;;
80195;SDS011;69516;42.050;21.516;2024-03-02T02:49:10;12.43;;;7.82;;
80195;SDS011;69516;42.050;21.516;2024-03-02T02:51:36;14.13;;;8.48;;
80195;SDS011;69516;42.050;21.516;2024-03-02T02:54:02;14.48;;;8.60;;
80195;SDS011;69516;42.050;21.516;2024-03-02T02:56:29;14.65;;;8.68;;
80195;SDS011;69516;42.050;21.516;2024-03-02T02:58:55;13.88;;;8.05;;
80195;SDS011;69516;42.050;21.516;2024-03-02T03:01:21;13.40;;;8.10;;
80195;SDS011;69516;42.050;21.516;2024-03-02T03:03:47;14.55;;;8.25;;
80195;SDS011;69516;42.050;21.516;2024-03-02T03:06:13;16.20;;;10.52;;
80195;SDS011;69516;42.050;21.516;2024-03-02T03:08:39;25.38;;;13.35;;
80195;SDS011;69516;42.050;21.516;2024-03-02T03:11:05;16.08;;;8.63;;
80195;SDS011;69516;42.050;21.516;2024-03-02T03:13:32;14.95;;;9.32;;
80195;SDS011;69516;42.050;21.516;2024-03-02T03:15:58;14.65;;;9.23;;
80195;SDS011;69516;42.050;21.516;2024-03-02T03:18:24;14.57;;;8.90;;
80195;SDS011;69516;42.050;21.516;2024-03-02T03:20:50;14.18;;;8.38;;
80195;SDS011;69516;42.050;21.516;2024-03-02T03:23:16;14.55;;;8.82;;
80195;SDS011;69516;42.050;21.516;2024-03-02T03:25:43;16.27;;;10.15;;
80195;SDS011;69516;42.050;21.516;2024-03-02T03:28:09;17.92;;;9.25;;
80195;SDS011;69516;42.050;21.516;2024-03-02T03:30:38;15.35;;;9.88;;
80195;SDS011;69516;42.050;21.516;2024-03-02T03:33:05;15.00;;;9.10;;
80195;SDS011;69516;42.050;21.516;2024-03-02T03:35:31;16.13;;;9.50;;
80195;SDS011;69516;42.050;21.516;2024-03-02T03:37:58;15.63;;;10.05;;
80195;SDS011;69516;42.050;21.516;2024-03-02T03:40:24;20.15;;;12.20;;
80195;SDS011;69516;42.050;21.516;2024-03-02T03:42:51;15.43;;;9.63;;
80195;SDS011;69516;42.050;21.516;2024-03-02T03:45:17;16.45;;;9.65;;
80195;SDS011;69516;42.050;21.516;2024-03-02T03:47:43;15.43;;;10.02;;
80195;SDS011;69516;42.050;21.516;2024-03-02T03:50:09;14.40;;;9.63;;
80195;SDS011;69516;42.050;21.516;2024-03-02T03:52:35;15.13;;;9.48;;
80195;SDS011;69516;42.050;21.516;2024-03-02T03:55:01;15.68;;;9.65;;
80195;SDS011;69516;42.050;21.516;2024-03-02T03:57:28;15.68;;;9.73;;
80195;SDS011;69516;42.050;21.516;2024-03-02T03:59:54;18.20;;;10.02;;
80195;SDS011;69516;42.050;21.516;2024-03-02T04:02:20;17.75;;;10.73;;
80195;SDS011;69516;42.050;21.516;2024-03-02T04:04:46;17.10;;;10.75;;
80195;SDS011;69516;42.050;21.516;2024-03-02T04:07:12;19.05;;;10.55;;
80195;SDS011;69516;42.050;21.516;2024-03-02T04:09:38;18.92;;;11.68;;
80195;SDS011;69516;42.050;21.516;2024-03-02T04:12:04;14.93;;;9.82;;
80195;SDS011;69516;42.050;21.516;2024-03-02T04:14:31;12.48;;;8.63;;
80195;SDS011;69516;42.050;21.516;2024-03-02T04:16:57;14.40;;;9.27;;
80195;SDS011;69516;42.050;21.516;2024-03-02T04:19:23;13.65;;;9.25;;
80195;SDS011;69516;42.050;21.516;2024-03-02T04:21:49;13.05;;;7.95;;
80195;SDS011;69516;42.050;21.516;2024-03-02T04:24:15;13.82;;;9.02;;
80195;SDS011;69516;42.050;21.516;2024-03-02T04:26:41;12.80;;;6.80;;
80195;SDS011;69516;42.050;21.516;2024-03-02T04:29:07;12.75;;;7.68;;
80195;SDS011;69516;42.050;21.516;2024-03-02T04:31:34;11.50;;;7.28;;
80195;SDS011;69516;42.050;21.516;2024-03-02T04:34:00;12.80;;;6.72;;
80195;SDS011;69516;42.050;21.516;2024-03-02T04:36:26;12.55;;;6.93;;
80195;SDS011;69516;42.050;21.516;2024-03-02T04:38:52;11.18;;;6.88;;
80195;SDS011;69516;42.050;21.516;2024-03-02T04:41:18;11.38;;;7.32;;
80195;SDS011;69516;42.050;21.516;2024-03-02T04:43:44;12.80;;;7.75;;
80195;SDS011;69516;42.050;21.516;2024-03-02T04:46:11;13.93;;;8.27;;
80195;SDS011;69516;42.050;21.516;2024-03-02T04:48:37;13.48;;;7.15;;
80195;SDS011;69516;42.050;21.516;2024-03-02T04:51:03;13.95;;;8.13;;
80195;SDS011;69516;42.050;21.516;2024-03-02T04:53:29;12.32;;;7.75;;
80195;SDS011;69516;42.050;21.516;2024-03-02T04:55:55;12.85;;;8.15;;
80195;SDS011;69516;42.050;21.516;2024-03-02T04:58:40;14.65;;;8.40;;
80195;SDS011;69516;42.050;21.516;2024-03-02T05:01:06;14.75;;;9.05;;
80195;SDS011;69516;42.050;21.516;2024-03-02T05:03:32;16.17;;;9.88;;
80195;SDS011;69516;42.050;21.516;2024-03-02T05:05:59;17.25;;;9.93;;
80195;SDS011;69516;42.050;21.516;2024-03-02T05:08:26;15.00;;;9.77;;
80195;SDS011;69516;42.050;21.516;2024-03-02T05:10:52;19.40;;;11.02;;
80195;SDS011;69516;42.050;21.516;2024-03-02T05:13:18;19.08;;;10.85;;
80195;SDS011;69516;42.050;21.516;2024-03-02T05:15:46;17.25;;;10.52;;
80195;SDS011;69516;42.050;21.516;2024-03-02T05:18:12;15.20;;;10.10;;
80195;SDS011;69516;42.050;21.516;2024-03-02T05:20:38;16.98;;;10.30;;
80195;SDS011;69516;42.050;21.516;2024-03-02T05:23:04;15.80;;;10.38;;
80195;SDS011;69516;42.050;21.516;2024-03-02T05:25:30;14.43;;;9.05;;
80195;SDS011;69516;42.050;21.516;2024-03-02T05:27:57;15.23;;;10.02;;
80195;SDS011;69516;42.050;21.516;2024-03-02T05:30:23;16.88;;;9.63;;
80195;SDS011;69516;42.050;21.516;2024-03-02T05:32:51;16.33;;;9.75;;
80195;SDS011;69516;42.050;21.516;2024-03-02T05:35:17;16.73;;;9.38;;
80195;SDS011;69516;42.050;21.516;2024-03-02T05:37:43;14.93;;;9.27;;
80195;SDS011;69516;42.050;21.516;2024-03-02T05:40:09;14.63;;;8.75;;
80195;SDS011;69516;42.050;21.516;2024-03-02T05:42:36;15.50;;;9.15;;
80195;SDS011;69516;42.050;21.516;2024-03-02T05:45:03;13.95;;;7.78;;
80195;SDS011;69516;42.050;21.516;2024-03-02T05:47:29;12.70;;;6.75;;
80195;SDS011;69516;42.050;21.516;2024-03-02T05:49:55;10.43;;;6.30;;
80195;SDS011;69516;42.050;21.516;2024-03-02T05:52:21;9.95;;;5.60;;
80195;SDS011;69516;42.050;21.516;2024-03-02T05:54:48;9.25;;;4.65;;
80195;SDS011;69516;42.050;21.516;2024-03-02T05:57:14;9.40;;;5.20;;
80195;SDS011;69516;42.050;21.516;2024-03-02T05:59:59;9.63;;;4.88;;
80195;SDS011;69516;42.050;21.516;2024-03-02T06:02:25;9.57;;;4.88;;
80195;SDS011;69516;42.050;21.516;2024-03-02T06:04:53;9.55;;;4.97;;
80195;SDS011;69516;42.050;21.516;2024-03-02T06:07:19;10.73;;;6.18;;
80195;SDS011;69516;42.050;21.516;2024-03-02T06:09:45;8.75;;;5.40;;
80195;SDS011;69516;42.050;21.516;2024-03-02T06:12:13;8.88;;;5.22;;
80195;SDS011;69516;42.050;21.516;2024-03-02T06:14:39;8.05;;;4.70;;
80195;SDS011;69516;42.050;21.516;2024-03-02T06:17:05;11.50;;;6.93;;
80195;SDS011;69516;42.050;21.516;2024-03-02T06:19:32;18.05;;;10.57;;
80195;SDS011;69516;42.050;21.516;2024-03-02T06:21:58;17.65;;;10.60;;
80195;SDS011;69516;42.050;21.516;2024-03-02T06:24:24;20.17;;;11.65;;
80195;SDS011;69516;42.050;21.516;2024-03-02T06:26:51;24.40;;;14.85;;
80195;SDS011;69516;42.050;21.516;2024-03-02T06:29:17;30.15;;;18.50;;
80195;SDS011;69516;42.050;21.516;2024-03-02T06:31:43;34.40;;;19.70;;
80195;SDS011;69516;42.050;21.516;2024-03-02T06:34:09;37.50;;;20.30;;
80195;SDS011;69516;42.050;21.516;2024-03-02T06:36:36;54.55;;;21.90;;
80195;SDS011;69516;42.050;21.516;2024-03-02T06:39:02;108.47;;;25.25;;
80195;SDS011;69516;42.050;21.516;2024-03-02T06:41:28;24.45;;;15.88;;
80195;SDS011;69516;42.050;21.516;2024-03-02T06:43:54;21.63;;;13.35;;
80195;SDS011;69516;42.050;21.516;2024-03-02T06:46:25;17.95;;;11.02;;
80195;SDS011;69516;42.050;21.516;2024-03-02T06:48:51;13.45;;;7.43;;
80195;SDS011;69516;42.050;21.516;2024-03-02T06:51:17;10.65;;;6.70;;
80195;SDS011;69516;42.050;21.516;2024-03-02T06:53:43;11.25;;;7.63;;
80195;SDS011;69516;42.050;21.516;2024-03-02T06:56:09;23.15;;;12.45;;
80195;SDS011;69516;42.050;21.516;2024-03-02T06:58:35;22.05;;;15.02;;
80195;SDS011;69516;42.050;21.516;2024-03-02T07:01:01;24.13;;;14.05;;
80195;SDS011;69516;42.050;21.516;2024-03-02T07:03:27;23.13;;;16.27;;
80195;SDS011;69516;42.050;21.516;2024-03-02T07:05:54;24.75;;;17.65;;
80195;SDS011;69516;42.050;21.516;2024-03-02T07:08:20;23.42;;;16.05;;
80195;SDS011;69516;42.050;21.516;2024-03-02T07:10:46;25.98;;;17.42;;
80195;SDS011;69516;42.050;21.516;2024-03-02T07:13:12;30.50;;;17.50;;
80195;SDS011;69516;42.050;21.516;2024-03-02T07:15:38;31.92;;;21.17;;
80195;SDS011;69516;42.050;21.516;2024-03-02T07:18:23;26.92;;;18.38;;
80195;SDS011;69516;42.050;21.516;2024-03-02T07:20:49;26.48;;;18.65;;
80195;SDS011;69516;42.050;21.516;2024-03-02T07:23:15;27.80;;;18.67;;
80195;SDS011;69516;42.050;21.516;2024-03-02T07:25:41;25.98;;;17.95;;
80195;SDS011;69516;42.050;21.516;2024-03-02T07:28:07;23.95;;;15.38;;
80195;SDS011;69516;42.050;21.516;2024-03-02T07:30:34;21.95;;;14.35;;
80195;SDS011;69516;42.050;21.516;2024-03-02T07:33:00;23.00;;;14.85;;
80195;SDS011;69516;42.050;21.516;2024-03-02T07:35:26;21.50;;;14.60;;
80195;SDS011;69516;42.050;21.516;2024-03-02T07:37:53;21.92;;;14.50;;
80195;SDS011;69516;42.050;21.516;2024-03-02T07:40:19;19.08;;;13.20;;
80195;SDS011;69516;42.050;21.516;2024-03-02T07:42:45;19.92;;;13.27;;
80195;SDS011;69516;42.050;21.516;2024-03-02T07:45:11;21.15;;;13.63;;
80195;SDS011;69516;42.050;21.516;2024-03-02T07:47:38;19.13;;;13.25;;
80195;SDS011;69516;42.050;21.516;2024-03-02T07:50:04;19.42;;;12.25;;
80195;SDS011;69516;42.050;21.516;2024-03-02T07:52:34;17.42;;;11.23;;
80195;SDS011;69516;42.050;21.516;2024-03-02T07:55:00;17.42;;;11.55;;
80195;SDS011;69516;42.050;21.516;2024-03-02T07:57:26;15.13;;;10.05;;
80195;SDS011;69516;42.050;21.516;2024-03-02T07:59:52;20.02;;;11.70;;
80195;SDS011;69516;42.050;21.516;2024-03-02T08:02:18;19.23;;;12.07;;
80195;SDS011;69516;42.050;21.516;2024-03-02T08:04:44;17.38;;;11.55;;
80195;SDS011;69516;42.050;21.516;2024-03-02T08:07:11;18.63;;;11.65;;
80195;SDS011;69516;42.050;21.516;2024-03-02T08:09:37;18.75;;;11.63;;
80195;SDS011;69516;42.050;21.516;2024-03-02T08:12:04;16.90;;;10.75;;
80195;SDS011;69516;42.050;21.516;2024-03-02T08:14:30;18.17;;;11.57;;
80195;SDS011;69516;42.050;21.516;2024-03-02T08:16:56;20.45;;;12.57;;
80195;SDS011;69516;42.050;21.516;2024-03-02T08:19:22;18.30;;;12.50;;
80195;SDS011;69516;42.050;21.516;2024-03-02T08:21:48;17.58;;;11.85;;
80195;SDS011;69516;42.050;21.516;2024-03-02T08:24:15;17.13;;;11.05;;
80195;SDS011;69516;42.050;21.516;2024-03-02T08:26:42;17.13;;;11.30;;
80195;SDS011;69516;42.050;21.516;2024-03-02T08:29:08;16.20;;;10.05;;
80195;SDS011;69516;42.050;21.516;2024-03-02T08:31:34;16.15;;;11.32;;
80195;SDS011;69516;42.050;21.516;2024-03-02T08:34:00;16.50;;;10.95;;
80195;SDS011;69516;42.050;21.516;2024-03-02T08:36:27;19.80;;;11.35;;
80195;SDS011;69516;42.050;21.516;2024-03-02T08:38:53;18.45;;;11.70;;
80195;SDS011;69516;42.050;21.516;2024-03-02T08:41:19;18.35;;;12.25;;
80195;SDS011;69516;42.050;21.516;2024-03-02T08:43:45;19.38;;;12.50;;
80195;SDS011;69516;42.050;21.516;2024-03-02T08:46:11;16.80;;;12.35;;
80195;SDS011;69516;42.050;21.516;2024-03-02T08:48:37;17.45;;;12.30;;
80195;SDS011;69516;42.050;21.516;2024-03-02T08:51:04;18.02;;;12.35;;
80195;SDS011;69516;42.050;21.516;2024-03-02T08:53:32;17.92;;;11.45;;
80195;SDS011;69516;42.050;21.516;2024-03-02T08:55:58;19.27;;;13.00;;
80195;SDS011;69516;42.050;21.516;2024-03-02T08:58:25;17.77;;;12.27;;
80195;SDS011;69516;42.050;21.516;2024-03-02T09:00:51;18.50;;;11.40;;
80195;SDS011;69516;42.050;21.516;2024-03-02T09:03:17;18.50;;;11.43;;
80195;SDS011;69516;42.050;21.516;2024-03-02T09:05:43;18.13;;;11.90;;
80195;SDS011;69516;42.050;21.516;2024-03-02T09:08:10;18.58;;;12.27;;
80195;SDS011;69516;42.050;21.516;2024-03-02T09:10:36;19.67;;;12.18;;
80195;SDS011;69516;42.050;21.516;2024-03-02T09:15:30;20.95;;;12.52;;
80195;SDS011;69516;42.050;21.516;2024-03-02T09:17:56;19.15;;;11.55;;
80195;SDS011;69516;42.050;21.516;2024-03-02T09:20:22;16.13;;;11.18;;
80195;SDS011;69516;42.050;21.516;2024-03-02T09:22:49;17.83;;;11.57;;
80195;SDS011;69516;42.050;21.516;2024-03-02T09:25:15;18.27;;;11.85;;
80195;SDS011;69516;42.050;21.516;2024-03-02T09:27:41;18.02;;;10.88;;
80195;SDS011;69516;42.050;21.516;2024-03-02T09:30:08;16.67;;;11.00;;
80195;SDS011;69516;42.050;21.516;2024-03-02T09:32:35;16.60;;;11.07;;
80195;SDS011;69516;42.050;21.516;2024-03-02T09:35:01;16.65;;;11.18;;
80195;SDS011;69516;42.050;21.516;2024-03-02T09:37:27;15.10;;;10.88;;
80195;SDS011;69516;42.050;21.516;2024-03-02T09:39:54;16.58;;;9.55;;
80195;SDS011;69516;42.050;21.516;2024-03-02T09:42:20;15.45;;;9.65;;
80195;SDS011;69516;42.050;21.516;2024-03-02T09:44:46;15.27;;;9.90;;
80195;SDS011;69516;42.050;21.516;2024-03-02T09:47:13;16.55;;;9.15;;
80195;SDS011;69516;42.050;21.516;2024-03-02T09:49:39;12.80;;;7.93;;
80195;SDS011;69516;42.050;21.516;2024-03-02T09:52:05;12.23;;;8.00;;
80195;SDS011;69516;42.050;21.516;2024-03-02T09:54:32;14.73;;;9.15;;
80195;SDS011;69516;42.050;21.516;2024-03-02T09:56:59;17.30;;;10.15;;
80195;SDS011;69516;42.050;21.516;2024-03-02T09:59:27;14.45;;;10.00;;
80195;SDS011;69516;42.050;21.516;2024-03-02T10:02:01;14.88;;;9.50;;
80195;SDS011;69516;42.050;21.516;2024-03-02T10:04:27;15.43;;;9.95;;
80195;SDS011;69516;42.050;21.516;2024-03-02T10:09:39;11.57;;;7.07;;
80195;SDS011;69516;42.050;21.516;2024-03-02T10:12:06;12.63;;;6.63;;
80195;SDS011;69516;42.050;21.516;2024-03-02T10:14:33;15.63;;;8.25;;
80195;SDS011;69516;42.050;21.516;2024-03-02T10:17:02;12.80;;;7.72;;
80195;SDS011;69516;42.050;21.516;2024-03-02T10:19:29;10.00;;;6.28;;
80195;SDS011;69516;42.050;21.516;2024-03-02T10:21:59;15.18;;;7.18;;
80195;SDS011;69516;42.050;21.516;2024-03-02T10:24:26;13.77;;;8.15;;
80195;SDS011;69516;42.050;21.516;2024-03-02T10:26:52;16.00;;;8.88;;
80195;SDS011;69516;42.050;21.516;2024-03-02T10:29:19;14.73;;;8.70;;
80195;SDS011;69516;42.050;21.516;2024-03-02T10:31:45;14.70;;;7.55;;
80195;SDS011;69516;42.050;21.516;2024-03-02T10:34:12;13.35;;;7.40;;
80195;SDS011;69516;42.050;21.516;2024-03-02T10:36:42;13.50;;;7.05;;
80195;SDS011;69516;42.050;21.516;2024-03-02T10:39:08;11.13;;;6.60;;
80195;SDS011;69516;42.050;21.516;2024-03-02T10:41:35;14.35;;;7.57;;
80195;SDS011;69516;42.050;21.516;2024-03-02T10:44:02;10.52;;;7.15;;
80195;SDS011;69516;42.050;21.516;2024-03-02T10:46:29;12.48;;;8.07;;
80195;SDS011;69516;42.050;21.516;2024-03-02T10:48:59;12.88;;;7.15;;
80195;SDS011;69516;42.050;21.516;2024-03-02T10:51:26;14.13;;;7.30;;
80195;SDS011;69516;42.050;21.516;2024-03-02T10:53:54;12.02;;;7.40;;
80195;SDS011;69516;42.050;21.516;2024-03-02T10:59:20;14.10;;;7.90;;
80195;SDS011;69516;42.050;21.516;2024-03-02T11:01:43;12.02;;;7.88;;
80195;SDS011;69516;42.050;21.516;2024-03-02T11:04:11;14.40;;;7.75;;
80195;SDS011;69516;42.050;21.516;2024-03-02T11:06:38;13.93;;;7.20;;
80195;SDS011;69516;42.050;21.516;2024-03-02T11:09:07;12.07;;;7.15;;
80195;SDS011;69516;42.050;21.516;2024-03-02T11:11:36;11.90;;;6.63;;
80195;SDS011;69516;42.050;21.516;2024-03-02T11:14:04;12.10;;;7.45;;
80195;SDS011;69516;42.050;21.516;2024-03-02T11:16:36;13.73;;;7.00;;
80195;SDS011;69516;42.050;21.516;2024-03-02T11:19:10;11.07;;;7.00;;
80195;SDS011;69516;42.050;21.516;2024-03-02T11:21:37;11.65;;;6.60;;
80195;SDS011;69516;42.050;21.516;2024-03-02T11:26:53;11.57;;;6.88;;
80195;SDS011;69516;42.050;21.516;2024-03-02T11:29:52;13.13;;;7.32;;
80195;SDS011;69516;42.050;21.516;2024-03-02T11:32:30;18.25;;;9.60;;
80195;SDS011;69516;42.050;21.516;2024-03-02T11:34:56;12.35;;;7.05;;
80195;SDS011;69516;42.050;21.516;2024-03-02T11:37:22;14.43;;;8.65;;
80195;SDS011;69516;42.050;21.516;2024-03-02T11:39:50;10.35;;;6.18;;
80195;SDS011;69516;42.050;21.516;2024-03-02T11:42:17;13.13;;;6.53;;
80195;SDS011;69516;42.050;21.516;2024-03-02T11:44:44;13.00;;;7.03;;
80195;SDS011;69516;42.050;21.516;2024-03-02T11:47:12;14.45;;;6.68;;
80195;SDS011;69516;42.050;21.516;2024-03-02T11:49:45;12.18;;;7.10;;
80195;SDS011;69516;42.050;21.516;2024-03-02T11:52:14;11.07;;;6.60;;
80195;SDS011;69516;42.050;21.516;2024-03-02T11:54:43;10.40;;;5.95;;
80195;SDS011;69516;42.050;21.516;2024-03-02T11:57:14;15.77;;;6.60;;
80195;SDS011;69516;42.050;21.516;2024-03-02T11:59:41;13.95;;;6.68;;
80195;SDS011;69516;42.050;21.516;2024-03-02T12:02:12;11.75;;;5.72;;
80195;SDS011;69516;42.050;21.516;2024-03-02T12:04:40;11.45;;;5.97;;
80195;SDS011;69516;42.050;21.516;2024-03-02T12:07:06;17.15;;;8.65;;
80195;SDS011;69516;42.050;21.516;2024-03-02T12:09:33;14.13;;;6.78;;
80195;SDS011;69516;42.050;21.516;2024-03-02T12:14:29;12.00;;;5.70;;
80195;SDS011;69516;42.050;21.516;2024-03-02T12:16:55;12.57;;;6.07;;
80195;SDS011;69516;42.050;21.516;2024-03-02T12:19:24;10.82;;;5.38;;
80195;SDS011;69516;42.050;21.516;2024-03-02T12:21:50;11.57;;;5.57;;
80195;SDS011;69516;42.050;21.516;2024-03-02T12:24:17;13.85;;;7.03;;
80195;SDS011;69516;42.050;21.516;2024-03-02T12:26:43;12.25;;;5.90;;
80195;SDS011;69516;42.050;21.516;2024-03-02T12:29:09;11.73;;;6.07;;
80195;SDS011;69516;42.050;21.516;2024-03-02T12:31:35;9.70;;;5.28;;
80195;SDS011;69516;42.050;21.516;2024-03-02T12:34:02;15.20;;;5.90;;
80195;SDS011;69516;42.050;21.516;2024-03-02T12:36:29;11.68;;;5.50;;
80195;SDS011;69516;42.050;21.516;2024-03-02T12:38:55;11.77;;;5.85;;
80195;SDS011;69516;42.050;21.516;2024-03-02T12:41:22;11.98;;;6.38;;
80195;SDS011;69516;42.050;21.516;2024-03-02T12:43:49;15.52;;;7.20;;
80195;SDS011;69516;42.050;21.516;2024-03-02T12:46:15;13.18;;;5.05;;
80195;SDS011;69516;42.050;21.516;2024-03-02T12:48:41;9.85;;;4.72;;
80195;SDS011;69516;42.050;21.516;2024-03-02T12:51:07;9.85;;;5.35;;
80195;SDS011;69516;42.050;21.516;2024-03-02T12:53:33;9.35;;;4.57;;
80195;SDS011;69516;42.050;21.516;2024-03-02T12:56:00;9.07;;;4.88;;
80195;SDS011;69516;42.050;21.516;2024-03-02T12:58:26;10.25;;;4.70;;
80195;SDS011;69516;42.050;21.516;2024-03-02T13:03:20;13.20;;;4.70;;
80195;SDS011;69516;42.050;21.516;2024-03-02T13:05:49;7.70;;;4.43;;
80195;SDS011;69516;42.050;21.516;2024-03-02T13:08:15;10.38;;;4.45;;
80195;SDS011;69516;42.050;21.516;2024-03-02T13:10:42;10.73;;;4.95;;
80195;SDS011;69516;42.050;21.516;2024-03-02T13:13:08;10.55;;;4.95;;
80195;SDS011;69516;42.050;21.516;2024-03-02T13:15:34;9.23;;;4.70;;
80195;SDS011;69516;42.050;21.516;2024-03-02T13:18:00;13.02;;;5.50;;
80195;SDS011;69516;42.050;21.516;2024-03-02T13:20:30;11.70;;;5.47;;
80195;SDS011;69516;42.050;21.516;2024-03-02T13:23:00;12.25;;;5.13;;
80195;SDS011;69516;42.050;21.516;2024-03-02T13:25:26;15.60;;;5.88;;
80195;SDS011;69516;42.050;21.516;2024-03-02T13:27:52;10.50;;;4.45;;
80195;SDS011;69516;42.050;21.516;2024-03-02T13:30:18;12.18;;;5.10;;
80195;SDS011;69516;42.050;21.516;2024-03-02T13:32:45;9.63;;;4.70;;
80195;SDS011;69516;42.050;21.516;2024-03-02T13:35:11;9.40;;;4.70;;
80195;SDS011;69516;42.050;21.516;2024-03-02T13:37:37;12.98;;;5.07;;
80195;SDS011;69516;42.050;21.516;2024-03-02T13:40:03;11.13;;;4.53;;
80195;SDS011;69516;42.050;21.516;2024-03-02T13:42:30;9.85;;;4.28;;
80195;SDS011;69516;42.050;21.516;2024-03-02T13:44:56;9.25;;;4.75;;
80195;SDS011;69516;42.050;21.516;2024-03-02T13:47:22;10.02;;;4.85;;
80195;SDS011;69516;42.050;21.516;2024-03-02T13:49:49;12.05;;;4.97;;
80195;SDS011;69516;42.050;21.516;2024-03-02T13:52:15;10.32;;;4.45;;
80195;SDS011;69516;42.050;21.516;2024-03-02T13:54:46;8.88;;;4.00;;
80195;SDS011;69516;42.050;21.516;2024-03-02T13:57:12;8.57;;;4.78;;
80195;SDS011;69516;42.050;21.516;2024-03-02T13:59:40;11.05;;;4.80;;
80195;SDS011;69516;42.050;21.516;2024-03-02T14:02:07;10.45;;;4.43;;
80195;SDS011;69516;42.050;21.516;2024-03-02T14:04:34;11.82;;;4.32;;
80195;SDS011;69516;42.050;21.516;2024-03-02T14:07:01;10.70;;;4.53;;
80195;SDS011;69516;42.050;21.516;2024-03-02T14:09:27;9.45;;;4.32;;
80195;SDS011;69516;42.050;21.516;2024-03-02T14:11:54;9.88;;;4.10;;
80195;SDS011;69516;42.050;21.516;2024-03-02T14:14:20;9.40;;;4.28;;
80195;SDS011;69516;42.050;21.516;2024-03-02T14:16:46;8.82;;;4.00;;
80195;SDS011;69516;42.050;21.516;2024-03-02T14:19:13;13.90;;;4.40;;
80195;SDS011;69516;42.050;21.516;2024-03-02T14:21:39;10.10;;;4.25;;
80195;SDS011;69516;42.050;21.516;2024-03-02T14:24:05;10.43;;;4.03;;
80195;SDS011;69516;42.050;21.516;2024-03-02T14:26:32;11.93;;;4.05;;
80195;SDS011;69516;42.050;21.516;2024-03-02T14:28:58;11.30;;;4.28;;
80195;SDS011;69516;42.050;21.516;2024-03-02T14:31:27;11.07;;;4.20;;